sensor_id;sensor_type;location;lat;lon;timestamp;P1;durP1;ratioP1;P2;durP2;ratioP2
63016;SDS011;50274;45.640;11.756;2024-02-14T00:02:17;30.53;;;21.40;;
63016;SDS011;50274;45.640;11.756;2024-02-14T00:04:43;31.63;;;20.40;;
63016;SDS011;50274;45.640;11.756;2024-02-14T00:07:10;31.40;;;20.90;;
63016;SDS011;50274;45.640;11.756;2024-02-14T00:09:35;33.67;;;22.07;;
63016;SDS011;50274;45.640;11.756;2024-02-14T00:12:01;30.52;;;20.95;;
63016;SDS011;50274;45.640;11.756;2024-02-14T00:14:27;30.53;;;20.10;;
63016;SDS011;50274;45.640;11.756;2024-02-14T00:16:53;29.55;;;19.73;;
63016;SDS011;50274;45.640;11.756;2024-02-14T00:19:19;29.20;;;18.80;;
63016;SDS011;50274;45.640;11.756;2024-02-14T00:21:45;30.97;;;19.50;;
63016;SDS011;50274;45.640;11.756;2024-02-14T00:24:11;28.65;;;18.48;;
63016;SDS011;50274;45.640;11.756;2024-02-14T00:26:36;25.25;;;16.60;;
63016;SDS011;50274;45.640;11.756;2024-02-14T00:29:04;24.23;;;16.20;;
63016;SDS011;50274;45.640;11.756;2024-02-14T00:31:30;28.65;;;16.92;;
63016;SDS011;50274;45.640;11.756;2024-02-14T00:33:56;23.45;;;16.30;;
63016;SDS011;50274;45.640;11.756;2024-02-14T00:36:21;25.60;;;15.40;;
63016;SDS011;50274;45.640;11.756;2024-02-14T00:38:47;24.75;;;14.57;;
63016;SDS011;50274;45.640;11.756;2024-02-14T00:41:13;23.02;;;15.05;;
63016;SDS011;50274;45.640;11.756;2024-02-14T00:43:39;21.30;;;14.70;;
63016;SDS011;50274;45.640;11.756;2024-02-14T00:46:05;24.63;;;14.68;;
63016;SDS011;50274;45.640;11.756;2024-02-14T00:48:31;21.97;;;14.13;;
63016;SDS011;50274;45.640;11.756;2024-02-14T00:50:58;22.20;;;13.38;;
63016;SDS011;50274;45.640;11.756;2024-02-14T00:53:24;21.00;;;13.40;;
63016;SDS011;50274;45.640;11.756;2024-02-14T00:55:50;20.90;;;12.07;;
63016;SDS011;50274;45.640;11.756;2024-02-14T00:58:16;19.70;;;11.93;;
63016;SDS011;50274;45.640;11.756;2024-02-14T01:00:42;25.33;;;11.87;;
63016;SDS011;50274;45.640;11.756;2024-02-14T01:03:08;18.33;;;11.50;;
63016;SDS011;50274;45.640;11.756;2024-02-14T01:05:38;16.58;;;10.93;;
63016;SDS011;50274;45.640;11.756;2024-02-14T01:08:04;19.95;;;11.05;;
63016;SDS011;50274;45.640;11.756;2024-02-14T01:10:30;17.80;;;10.32;;
63016;SDS011;50274;45.640;11.756;2024-02-14T01:12:56;16.53;;;9.80;;
63016;SDS011;50274;45.640;11.756;2024-02-14T01:15:22;17.02;;;9.68;;
63016;SDS011;50274;45.640;11.756;2024-02-14T01:17:48;17.27;;;9.83;;
63016;SDS011;50274;45.640;11.756;2024-02-14T01:20:13;16.45;;;9.40;;
63016;SDS011;50274;45.640;11.756;2024-02-14T01:22:40;15.15;;;8.65;;
63016;SDS011;50274;45.640;11.756;2024-02-14T01:25:06;15.80;;;8.97;;
63016;SDS011;50274;45.640;11.756;2024-02-14T01:27:32;15.07;;;8.93;;
63016;SDS011;50274;45.640;11.756;2024-02-14T01:29:58;14.15;;;9.05;;
63016;SDS011;50274;45.640;11.756;2024-02-14T01:32:24;16.10;;;8.82;;
63016;SDS011;50274;45.640;11.756;2024-02-14T01:34:51;13.32;;;7.88;;
63016;SDS011;50274;45.640;11.756;2024-02-14T01:37:17;12.60;;;7.97;;
63016;SDS011;50274;45.640;11.756;2024-02-14T01:39:43;17.10;;;9.48;;
63016;SDS011;50274;45.640;11.756;2024-02-14T01:42:09;15.63;;;8.75;;
63016;SDS011;50274;45.640;11.756;2024-02-14T01:44:34;14.30;;;8.53;;
63016;SDS011;50274;45.640;11.756;2024-02-14T01:47:02;15.85;;;9.65;;
63016;SDS011;50274;45.640;11.756;2024-02-14T01:49:28;16.27;;;9.93;;
63016;SDS011;50274;45.640;11.756;2024-02-14T01:51:55;15.47;;;9.50;;
63016;SDS011;50274;45.640;11.756;2024-02-14T01:54:26;13.52;;;8.63;;
63016;SDS011;50274;45.640;11.756;2024-02-14T01:56:53;14.77;;;8.98;;
63016;SDS011;50274;45.640;11.756;2024-02-14T01:59:21;15.23;;;8.65;;
63016;SDS011;50274;45.640;11.756;2024-02-14T02:01:48;16.50;;;9.70;;
63016;SDS011;50274;45.640;11.756;2024-02-14T02:04:14;14.77;;;8.77;;
63016;SDS011;50274;45.640;11.756;2024-02-14T02:06:40;15.63;;;8.38;;
63016;SDS011;50274;45.640;11.756;2024-02-14T02:09:06;15.60;;;8.90;;
63016;SDS011;50274;45.640;11.756;2024-02-14T02:11:53;14.87;;;9.20;;
63016;SDS011;50274;45.640;11.756;2024-02-14T02:14:21;13.65;;;8.32;;
63016;SDS011;50274;45.640;11.756;2024-02-14T02:16:47;13.50;;;7.63;;
63016;SDS011;50274;45.640;11.756;2024-02-14T02:19:14;14.32;;;8.43;;
63016;SDS011;50274;45.640;11.756;2024-02-14T02:21:43;12.98;;;7.97;;
63016;SDS011;50274;45.640;11.756;2024-02-14T02:24:11;14.17;;;8.43;;
63016;SDS011;50274;45.640;11.756;2024-02-14T02:26:37;13.55;;;8.93;;
63016;SDS011;50274;45.640;11.756;2024-02-14T02:29:03;13.80;;;8.25;;
63016;SDS011;50274;45.640;11.756;2024-02-14T02:31:30;14.32;;;8.95;;
63016;SDS011;50274;45.640;11.756;2024-02-14T02:33:56;12.90;;;8.30;;
63016;SDS011;50274;45.640;11.756;2024-02-14T02:36:22;12.10;;;8.23;;
63016;SDS011;50274;45.640;11.756;2024-02-14T02:38:49;14.75;;;8.77;;
63016;SDS011;50274;45.640;11.756;2024-02-14T02:41:15;14.43;;;8.38;;
63016;SDS011;50274;45.640;11.756;2024-02-14T02:43:41;15.02;;;8.95;;
63016;SDS011;50274;45.640;11.756;2024-02-14T02:46:10;13.23;;;8.23;;
63016;SDS011;50274;45.640;11.756;2024-02-14T02:48:36;14.90;;;8.85;;
63016;SDS011;50274;45.640;11.756;2024-02-14T02:51:02;13.95;;;8.85;;
63016;SDS011;50274;45.640;11.756;2024-02-14T02:53:28;13.38;;;8.32;;
63016;SDS011;50274;45.640;11.756;2024-02-14T02:55:54;13.73;;;8.03;;
63016;SDS011;50274;45.640;11.756;2024-02-14T02:58:22;13.03;;;8.33;;
63016;SDS011;50274;45.640;11.756;2024-02-14T03:00:48;14.13;;;8.48;;
63016;SDS011;50274;45.640;11.756;2024-02-14T03:03:14;14.77;;;8.65;;
63016;SDS011;50274;45.640;11.756;2024-02-14T03:05:41;13.85;;;8.70;;
63016;SDS011;50274;45.640;11.756;2024-02-14T03:08:09;13.20;;;8.48;;
63016;SDS011;50274;45.640;11.756;2024-02-14T03:10:39;15.23;;;8.60;;
63016;SDS011;50274;45.640;11.756;2024-02-14T03:13:05;14.68;;;8.23;;
63016;SDS011;50274;45.640;11.756;2024-02-14T03:15:34;15.45;;;8.75;;
63016;SDS011;50274;45.640;11.756;2024-02-14T03:18:00;13.20;;;7.97;;
63016;SDS011;50274;45.640;11.756;2024-02-14T03:20:26;13.13;;;8.23;;
63016;SDS011;50274;45.640;11.756;2024-02-14T03:22:54;13.10;;;8.43;;
63016;SDS011;50274;45.640;11.756;2024-02-14T03:25:20;16.27;;;8.63;;
63016;SDS011;50274;45.640;11.756;2024-02-14T03:27:46;12.95;;;7.47;;
63016;SDS011;50274;45.640;11.756;2024-02-14T03:30:14;15.13;;;8.17;;
63016;SDS011;50274;45.640;11.756;2024-02-14T03:32:44;13.75;;;8.18;;
63016;SDS011;50274;45.640;11.756;2024-02-14T03:35:11;13.65;;;7.72;;
63016;SDS011;50274;45.640;11.756;2024-02-14T03:37:39;14.02;;;8.25;;
63016;SDS011;50274;45.640;11.756;2024-02-14T03:40:09;13.80;;;8.23;;
63016;SDS011;50274;45.640;11.756;2024-02-14T03:42:35;14.00;;;7.20;;
63016;SDS011;50274;45.640;11.756;2024-02-14T03:45:04;15.07;;;8.55;;
63016;SDS011;50274;45.640;11.756;2024-02-14T03:47:34;14.57;;;7.80;;
63016;SDS011;50274;45.640;11.756;2024-02-14T03:50:00;12.05;;;7.35;;
63016;SDS011;50274;45.640;11.756;2024-02-14T03:52:27;12.10;;;6.60;;
63016;SDS011;50274;45.640;11.756;2024-02-14T03:54:57;14.10;;;7.43;;
63016;SDS011;50274;45.640;11.756;2024-02-14T03:57:24;11.75;;;7.20;;
63016;SDS011;50274;45.640;11.756;2024-02-14T03:59:52;12.63;;;7.15;;
63016;SDS011;50274;45.640;11.756;2024-02-14T04:02:18;12.13;;;6.97;;
63016;SDS011;50274;45.640;11.756;2024-02-14T04:04:44;12.27;;;7.33;;
63016;SDS011;50274;45.640;11.756;2024-02-14T04:07:11;11.77;;;7.07;;
63016;SDS011;50274;45.640;11.756;2024-02-14T04:09:37;12.00;;;7.10;;
63016;SDS011;50274;45.640;11.756;2024-02-14T04:12:03;11.27;;;7.25;;
63016;SDS011;50274;45.640;11.756;2024-02-14T04:14:30;13.00;;;7.50;;
63016;SDS011;50274;45.640;11.756;2024-02-14T04:16:56;10.87;;;6.63;;
63016;SDS011;50274;45.640;11.756;2024-02-14T04:19:22;12.95;;;7.18;;
63016;SDS011;50274;45.640;11.756;2024-02-14T04:21:48;10.82;;;6.55;;
63016;SDS011;50274;45.640;11.756;2024-02-14T04:24:14;11.57;;;6.33;;
63016;SDS011;50274;45.640;11.756;2024-02-14T04:26:40;10.95;;;7.00;;
63016;SDS011;50274;45.640;11.756;2024-02-14T04:29:07;11.07;;;6.53;;
63016;SDS011;50274;45.640;11.756;2024-02-14T04:31:33;12.93;;;6.97;;
63016;SDS011;50274;45.640;11.756;2024-02-14T04:33:59;13.52;;;6.88;;
63016;SDS011;50274;45.640;11.756;2024-02-14T04:36:25;12.70;;;6.63;;
63016;SDS011;50274;45.640;11.756;2024-02-14T04:38:51;11.87;;;6.50;;
63016;SDS011;50274;45.640;11.756;2024-02-14T04:41:18;11.80;;;6.97;;
63016;SDS011;50274;45.640;11.756;2024-02-14T04:43:44;10.30;;;5.65;;
63016;SDS011;50274;45.640;11.756;2024-02-14T04:46:10;10.87;;;5.90;;
63016;SDS011;50274;45.640;11.756;2024-02-14T04:48:36;11.87;;;6.17;;
63016;SDS011;50274;45.640;11.756;2024-02-14T04:51:02;12.57;;;6.60;;
63016;SDS011;50274;45.640;11.756;2024-02-14T04:53:30;10.40;;;6.35;;
63016;SDS011;50274;45.640;11.756;2024-02-14T04:55:56;11.85;;;6.13;;
63016;SDS011;50274;45.640;11.756;2024-02-14T04:58:22;11.87;;;6.43;;
63016;SDS011;50274;45.640;11.756;2024-02-14T05:00:48;11.63;;;6.72;;
63016;SDS011;50274;45.640;11.756;2024-02-14T05:03:14;10.30;;;5.93;;
63016;SDS011;50274;45.640;11.756;2024-02-14T05:05:40;10.93;;;6.10;;
63016;SDS011;50274;45.640;11.756;2024-02-14T05:08:07;11.30;;;6.13;;
63016;SDS011;50274;45.640;11.756;2024-02-14T05:10:32;14.70;;;7.97;;
63016;SDS011;50274;45.640;11.756;2024-02-14T05:12:58;12.23;;;7.03;;
63016;SDS011;50274;45.640;11.756;2024-02-14T05:15:24;10.40;;;6.40;;
63016;SDS011;50274;45.640;11.756;2024-02-14T05:17:50;11.60;;;6.30;;
63016;SDS011;50274;45.640;11.756;2024-02-14T05:20:17;10.00;;;5.82;;
63016;SDS011;50274;45.640;11.756;2024-02-14T05:22:43;11.33;;;5.93;;
63016;SDS011;50274;45.640;11.756;2024-02-14T05:25:09;9.73;;;5.07;;
63016;SDS011;50274;45.640;11.756;2024-02-14T05:27:35;10.95;;;5.65;;
63016;SDS011;50274;45.640;11.756;2024-02-14T05:30:05;11.75;;;5.45;;
63016;SDS011;50274;45.640;11.756;2024-02-14T05:32:31;10.15;;;5.28;;
63016;SDS011;50274;45.640;11.756;2024-02-14T05:34:58;8.10;;;4.67;;
63016;SDS011;50274;45.640;11.756;2024-02-14T05:37:24;9.63;;;4.57;;
63016;SDS011;50274;45.640;11.756;2024-02-14T05:39:52;9.00;;;5.20;;
63016;SDS011;50274;45.640;11.756;2024-02-14T05:42:21;8.95;;;4.60;;
63016;SDS011;50274;45.640;11.756;2024-02-14T05:44:47;9.77;;;4.65;;
63016;SDS011;50274;45.640;11.756;2024-02-14T05:47:13;7.63;;;4.30;;
63016;SDS011;50274;45.640;11.756;2024-02-14T05:49:39;11.45;;;4.63;;
63016;SDS011;50274;45.640;11.756;2024-02-14T05:52:09;8.90;;;5.13;;
63016;SDS011;50274;45.640;11.756;2024-02-14T05:54:35;8.75;;;4.40;;
63016;SDS011;50274;45.640;11.756;2024-02-14T05:57:01;8.43;;;4.40;;
63016;SDS011;50274;45.640;11.756;2024-02-14T05:59:30;9.30;;;4.70;;
63016;SDS011;50274;45.640;11.756;2024-02-14T06:01:57;8.38;;;4.72;;
63016;SDS011;50274;45.640;11.756;2024-02-14T06:04:23;8.55;;;4.70;;
63016;SDS011;50274;45.640;11.756;2024-02-14T06:06:49;10.27;;;5.20;;
63016;SDS011;50274;45.640;11.756;2024-02-14T06:09:15;10.95;;;5.32;;
63016;SDS011;50274;45.640;11.756;2024-02-14T06:11:41;11.45;;;5.90;;
63016;SDS011;50274;45.640;11.756;2024-02-14T06:14:08;8.82;;;4.80;;
63016;SDS011;50274;45.640;11.756;2024-02-14T06:16:34;10.70;;;4.77;;
63016;SDS011;50274;45.640;11.756;2024-02-14T06:19:00;8.95;;;4.45;;
63016;SDS011;50274;45.640;11.756;2024-02-14T06:21:29;8.85;;;4.40;;
63016;SDS011;50274;45.640;11.756;2024-02-14T06:23:55;8.48;;;4.50;;
63016;SDS011;50274;45.640;11.756;2024-02-14T06:26:23;8.27;;;4.40;;
63016;SDS011;50274;45.640;11.756;2024-02-14T06:28:49;9.85;;;4.50;;
63016;SDS011;50274;45.640;11.756;2024-02-14T06:31:19;8.60;;;4.10;;
63016;SDS011;50274;45.640;11.756;2024-02-14T06:33:46;8.80;;;4.30;;
63016;SDS011;50274;45.640;11.756;2024-02-14T06:36:12;8.73;;;4.75;;
63016;SDS011;50274;45.640;11.756;2024-02-14T06:38:38;8.07;;;4.07;;
63016;SDS011;50274;45.640;11.756;2024-02-14T06:41:05;8.73;;;4.43;;
63016;SDS011;50274;45.640;11.756;2024-02-14T06:43:31;7.90;;;4.00;;
63016;SDS011;50274;45.640;11.756;2024-02-14T06:45:57;12.73;;;4.50;;
63016;SDS011;50274;45.640;11.756;2024-02-14T06:48:23;7.47;;;4.03;;
63016;SDS011;50274;45.640;11.756;2024-02-14T06:50:50;8.65;;;4.50;;
63016;SDS011;50274;45.640;11.756;2024-02-14T06:53:16;8.40;;;4.20;;
63016;SDS011;50274;45.640;11.756;2024-02-14T06:55:42;7.73;;;3.87;;
63016;SDS011;50274;45.640;11.756;2024-02-14T06:58:08;10.20;;;4.85;;
63016;SDS011;50274;45.640;11.756;2024-02-14T07:00:34;11.13;;;4.70;;
63016;SDS011;50274;45.640;11.756;2024-02-14T07:03:00;7.33;;;4.13;;
63016;SDS011;50274;45.640;11.756;2024-02-14T07:05:26;8.50;;;4.18;;
63016;SDS011;50274;45.640;11.756;2024-02-14T07:07:54;7.35;;;3.90;;
63016;SDS011;50274;45.640;11.756;2024-02-14T07:10:20;7.72;;;4.13;;
63016;SDS011;50274;45.640;11.756;2024-02-14T07:12:46;8.63;;;4.40;;
63016;SDS011;50274;45.640;11.756;2024-02-14T07:15:12;8.90;;;3.90;;
63016;SDS011;50274;45.640;11.756;2024-02-14T07:17:40;8.40;;;4.07;;
63016;SDS011;50274;45.640;11.756;2024-02-14T07:20:06;8.47;;;4.23;;
63016;SDS011;50274;45.640;11.756;2024-02-14T07:22:34;9.38;;;4.93;;
63016;SDS011;50274;45.640;11.756;2024-02-14T07:25:01;10.95;;;5.70;;
63016;SDS011;50274;45.640;11.756;2024-02-14T07:27:27;9.52;;;4.93;;
63016;SDS011;50274;45.640;11.756;2024-02-14T07:29:53;11.53;;;4.80;;
63016;SDS011;50274;45.640;11.756;2024-02-14T07:32:19;10.00;;;4.63;;
63016;SDS011;50274;45.640;11.756;2024-02-14T07:34:45;12.20;;;5.82;;
63016;SDS011;50274;45.640;11.756;2024-02-14T07:37:11;9.95;;;4.97;;
63016;SDS011;50274;45.640;11.756;2024-02-14T07:39:37;10.33;;;5.20;;
63016;SDS011;50274;45.640;11.756;2024-02-14T07:42:03;10.05;;;5.30;;
63016;SDS011;50274;45.640;11.756;2024-02-14T07:44:30;11.65;;;5.45;;
63016;SDS011;50274;45.640;11.756;2024-02-14T07:46:56;8.75;;;4.90;;
63016;SDS011;50274;45.640;11.756;2024-02-14T07:49:22;9.93;;;5.57;;
63016;SDS011;50274;45.640;11.756;2024-02-14T07:51:48;12.52;;;5.07;;
63016;SDS011;50274;45.640;11.756;2024-02-14T07:54:14;15.65;;;6.47;;
63016;SDS011;50274;45.640;11.756;2024-02-14T07:56:40;13.77;;;6.90;;
63016;SDS011;50274;45.640;11.756;2024-02-14T07:59:06;13.73;;;6.87;;
63016;SDS011;50274;45.640;11.756;2024-02-14T08:01:32;15.02;;;7.57;;
63016;SDS011;50274;45.640;11.756;2024-02-14T08:03:58;16.27;;;7.03;;
63016;SDS011;50274;45.640;11.756;2024-02-14T08:06:24;15.03;;;6.47;;
63016;SDS011;50274;45.640;11.756;2024-02-14T08:08:50;15.55;;;6.32;;
63016;SDS011;50274;45.640;11.756;2024-02-14T08:11:19;14.50;;;6.30;;
63016;SDS011;50274;45.640;11.756;2024-02-14T08:13:45;12.48;;;6.47;;
63016;SDS011;50274;45.640;11.756;2024-02-14T08:16:11;11.90;;;6.03;;
63016;SDS011;50274;45.640;11.756;2024-02-14T08:18:37;16.88;;;6.38;;
63016;SDS011;50274;45.640;11.756;2024-02-14T08:21:05;11.55;;;5.75;;
63016;SDS011;50274;45.640;11.756;2024-02-14T08:23:31;9.95;;;5.70;;
63016;SDS011;50274;45.640;11.756;2024-02-14T08:25:59;9.85;;;5.18;;
63016;SDS011;50274;45.640;11.756;2024-02-14T08:28:25;12.57;;;5.40;;
63016;SDS011;50274;45.640;11.756;2024-02-14T08:30:51;11.80;;;5.65;;
63016;SDS011;50274;45.640;11.756;2024-02-14T08:33:17;11.67;;;5.40;;
63016;SDS011;50274;45.640;11.756;2024-02-14T08:35:43;10.93;;;5.53;;
63016;SDS011;50274;45.640;11.756;2024-02-14T08:38:09;11.00;;;4.70;;
63016;SDS011;50274;45.640;11.756;2024-02-14T08:40:34;9.07;;;4.17;;
63016;SDS011;50274;45.640;11.756;2024-02-14T08:43:01;8.85;;;4.47;;
63016;SDS011;50274;45.640;11.756;2024-02-14T08:45:27;8.30;;;4.47;;
63016;SDS011;50274;45.640;11.756;2024-02-14T08:47:55;7.70;;;4.35;;
63016;SDS011;50274;45.640;11.756;2024-02-14T08:50:21;9.10;;;4.00;;
63016;SDS011;50274;45.640;11.756;2024-02-14T08:52:47;11.63;;;5.37;;
63016;SDS011;50274;45.640;11.756;2024-02-14T08:55:13;9.57;;;5.22;;
63016;SDS011;50274;45.640;11.756;2024-02-14T08:57:43;9.32;;;4.85;;
63016;SDS011;50274;45.640;11.756;2024-02-14T09:00:10;10.27;;;5.00;;
63016;SDS011;50274;45.640;11.756;2024-02-14T09:02:39;9.50;;;4.60;;
63016;SDS011;50274;45.640;11.756;2024-02-14T09:05:06;11.40;;;5.60;;
63016;SDS011;50274;45.640;11.756;2024-02-14T09:07:32;11.23;;;5.22;;
63016;SDS011;50274;45.640;11.756;2024-02-14T09:09:59;10.02;;;4.80;;
63016;SDS011;50274;45.640;11.756;2024-02-14T09:12:25;9.30;;;5.00;;
63016;SDS011;50274;45.640;11.756;2024-02-14T09:14:50;11.27;;;5.57;;
63016;SDS011;50274;45.640;11.756;2024-02-14T09:17:16;10.45;;;4.78;;
63016;SDS011;50274;45.640;11.756;2024-02-14T09:19:42;8.70;;;4.50;;
63016;SDS011;50274;45.640;11.756;2024-02-14T09:22:08;10.65;;;5.10;;
63016;SDS011;50274;45.640;11.756;2024-02-14T09:24:33;9.70;;;5.33;;
63016;SDS011;50274;45.640;11.756;2024-02-14T09:26:59;10.07;;;5.22;;
63016;SDS011;50274;45.640;11.756;2024-02-14T09:29:27;10.15;;;5.05;;
63016;SDS011;50274;45.640;11.756;2024-02-14T09:31:54;9.27;;;4.40;;
63016;SDS011;50274;45.640;11.756;2024-02-14T09:34:20;8.13;;;4.15;;
63016;SDS011;50274;45.640;11.756;2024-02-14T09:36:49;9.40;;;4.95;;
63016;SDS011;50274;45.640;11.756;2024-02-14T09:39:15;8.73;;;5.33;;
63016;SDS011;50274;45.640;11.756;2024-02-14T09:41:42;9.05;;;4.95;;
63016;SDS011;50274;45.640;11.756;2024-02-14T09:44:16;10.15;;;4.93;;
63016;SDS011;50274;45.640;11.756;2024-02-14T09:46:42;11.05;;;5.45;;
63016;SDS011;50274;45.640;11.756;2024-02-14T09:49:08;9.20;;;5.40;;
63016;SDS011;50274;45.640;11.756;2024-02-14T09:51:34;13.47;;;4.87;;
63016;SDS011;50274;45.640;11.756;2024-02-14T09:54:02;11.80;;;5.50;;
63016;SDS011;50274;45.640;11.756;2024-02-14T09:56:28;10.90;;;5.38;;
63016;SDS011;50274;45.640;11.756;2024-02-14T09:58:54;11.80;;;4.75;;
63016;SDS011;50274;45.640;11.756;2024-02-14T10:01:24;11.38;;;5.03;;
63016;SDS011;50274;45.640;11.756;2024-02-14T10:03:51;8.40;;;4.30;;
63016;SDS011;50274;45.640;11.756;2024-02-14T10:06:17;11.57;;;4.50;;
63016;SDS011;50274;45.640;11.756;2024-02-14T10:08:50;9.95;;;4.47;;
63016;SDS011;50274;45.640;11.756;2024-02-14T10:11:18;8.90;;;4.05;;
63016;SDS011;50274;45.640;11.756;2024-02-14T10:13:47;10.63;;;4.25;;
63016;SDS011;50274;45.640;11.756;2024-02-14T10:16:15;7.90;;;4.00;;
63016;SDS011;50274;45.640;11.756;2024-02-14T10:18:41;9.90;;;4.40;;
63016;SDS011;50274;45.640;11.756;2024-02-14T10:21:08;16.65;;;4.35;;
63016;SDS011;50274;45.640;11.756;2024-02-14T10:23:39;6.27;;;3.00;;
63016;SDS011;50274;45.640;11.756;2024-02-14T10:26:05;5.72;;;2.47;;
63016;SDS011;50274;45.640;11.756;2024-02-14T10:28:31;6.75;;;2.40;;
63016;SDS011;50274;45.640;11.756;2024-02-14T10:30:58;5.60;;;2.28;;
63016;SDS011;50274;45.640;11.756;2024-02-14T10:33:27;5.83;;;2.07;;
63016;SDS011;50274;45.640;11.756;2024-02-14T10:35:54;6.65;;;1.90;;
63016;SDS011;50274;45.640;11.756;2024-02-14T10:38:22;5.53;;;1.95;;
63016;SDS011;50274;45.640;11.756;2024-02-14T10:40:49;5.25;;;2.03;;
63016;SDS011;50274;45.640;11.756;2024-02-14T10:43:17;5.60;;;2.00;;
63016;SDS011;50274;45.640;11.756;2024-02-14T10:45:43;4.73;;;2.13;;
63016;SDS011;50274;45.640;11.756;2024-02-14T10:48:11;5.72;;;2.58;;
63016;SDS011;50274;45.640;11.756;2024-02-14T10:50:38;5.00;;;2.40;;
63016;SDS011;50274;45.640;11.756;2024-02-14T10:53:06;5.55;;;2.70;;
63016;SDS011;50274;45.640;11.756;2024-02-14T10:55:45;6.00;;;2.00;;
63016;SDS011;50274;45.640;11.756;2024-02-14T10:58:12;6.13;;;2.10;;
63016;SDS011;50274;45.640;11.756;2024-02-14T11:00:39;5.72;;;3.00;;
63016;SDS011;50274;45.640;11.756;2024-02-14T11:03:06;6.32;;;2.53;;
63016;SDS011;50274;45.640;11.756;2024-02-14T11:05:42;6.03;;;2.60;;
63016;SDS011;50274;45.640;11.756;2024-02-14T11:08:15;7.30;;;2.90;;
63016;SDS011;50274;45.640;11.756;2024-02-14T11:10:51;5.60;;;2.53;;
63016;SDS011;50274;45.640;11.756;2024-02-14T11:13:21;6.50;;;2.40;;
63016;SDS011;50274;45.640;11.756;2024-02-14T11:15:51;7.63;;;3.20;;
63016;SDS011;50274;45.640;11.756;2024-02-14T11:18:26;5.07;;;2.50;;
63016;SDS011;50274;45.640;11.756;2024-02-14T11:20:55;6.77;;;2.90;;
63016;SDS011;50274;45.640;11.756;2024-02-14T11:23:22;7.90;;;3.38;;
63016;SDS011;50274;45.640;11.756;2024-02-14T11:25:48;7.72;;;3.25;;
63016;SDS011;50274;45.640;11.756;2024-02-14T11:28:18;7.60;;;3.33;;
63016;SDS011;50274;45.640;11.756;2024-02-14T11:30:45;7.17;;;3.10;;
63016;SDS011;50274;45.640;11.756;2024-02-14T11:33:20;7.78;;;3.22;;
63016;SDS011;50274;45.640;11.756;2024-02-14T11:35:50;6.40;;;3.17;;
63016;SDS011;50274;45.640;11.756;2024-02-14T11:38:18;6.65;;;3.45;;
63016;SDS011;50274;45.640;11.756;2024-02-14T11:40:48;7.90;;;3.58;;
63016;SDS011;50274;45.640;11.756;2024-02-14T11:43:15;8.37;;;4.43;;
63016;SDS011;50274;45.640;11.756;2024-02-14T11:45:43;7.40;;;4.10;;
63016;SDS011;50274;45.640;11.756;2024-02-14T11:48:11;7.85;;;4.60;;
63016;SDS011;50274;45.640;11.756;2024-02-14T11:50:40;10.05;;;5.03;;
63016;SDS011;50274;45.640;11.756;2024-02-14T11:53:08;8.70;;;4.72;;
63016;SDS011;50274;45.640;11.756;2024-02-14T11:55:38;10.57;;;4.97;;
63016;SDS011;50274;45.640;11.756;2024-02-14T11:58:07;10.15;;;5.38;;
63016;SDS011;50274;45.640;11.756;2024-02-14T12:00:36;11.13;;;5.70;;
63016;SDS011;50274;45.640;11.756;2024-02-14T12:03:06;8.57;;;4.65;;
63016;SDS011;50274;45.640;11.756;2024-02-14T12:05:33;9.95;;;5.20;;
63016;SDS011;50274;45.640;11.756;2024-02-14T12:08:01;8.97;;;5.20;;
63016;SDS011;50274;45.640;11.756;2024-02-14T12:10:27;10.77;;;5.40;;
63016;SDS011;50274;45.640;11.756;2024-02-14T12:12:56;11.55;;;6.80;;
63016;SDS011;50274;45.640;11.756;2024-02-14T12:15:22;9.70;;;5.03;;
63016;SDS011;50274;45.640;11.756;2024-02-14T12:17:48;11.93;;;5.57;;
63016;SDS011;50274;45.640;11.756;2024-02-14T12:20:14;8.70;;;5.10;;
63016;SDS011;50274;45.640;11.756;2024-02-14T12:22:41;10.27;;;5.18;;
63016;SDS011;50274;45.640;11.756;2024-02-14T12:25:07;10.05;;;5.57;;
63016;SDS011;50274;45.640;11.756;2024-02-14T12:27:36;11.20;;;6.20;;
63016;SDS011;50274;45.640;11.756;2024-02-14T12:30:05;11.70;;;5.67;;
63016;SDS011;50274;45.640;11.756;2024-02-14T12:32:35;11.70;;;6.50;;
63016;SDS011;50274;45.640;11.756;2024-02-14T12:35:01;10.40;;;5.45;;
63016;SDS011;50274;45.640;11.756;2024-02-14T12:37:27;8.85;;;5.40;;
63016;SDS011;50274;45.640;11.756;2024-02-14T12:40:17;11.20;;;5.90;;
63016;SDS011;50274;45.640;11.756;2024-02-14T12:42:45;11.43;;;5.95;;
63016;SDS011;50274;45.640;11.756;2024-02-14T12:45:11;11.30;;;6.50;;
63016;SDS011;50274;45.640;11.756;2024-02-14T12:47:37;9.00;;;5.53;;
63016;SDS011;50274;45.640;11.756;2024-02-14T12:50:03;10.57;;;6.17;;
63016;SDS011;50274;45.640;11.756;2024-02-14T12:52:34;13.70;;;6.95;;
63016;SDS011;50274;45.640;11.756;2024-02-14T12:55:00;12.88;;;6.57;;
63016;SDS011;50274;45.640;11.756;2024-02-14T12:57:26;10.17;;;6.30;;
63016;SDS011;50274;45.640;11.756;2024-02-14T12:59:51;11.15;;;6.70;;
63016;SDS011;50274;45.640;11.756;2024-02-14T13:02:17;9.87;;;6.40;;
63016;SDS011;50274;45.640;11.756;2024-02-14T13:04:43;9.88;;;5.80;;
63016;SDS011;50274;45.640;11.756;2024-02-14T13:07:09;12.38;;;6.57;;
63016;SDS011;50274;45.640;11.756;2024-02-14T13:09:35;10.27;;;5.20;;
63016;SDS011;50274;45.640;11.756;2024-02-14T13:12:02;11.48;;;6.18;;
63016;SDS011;50274;45.640;11.756;2024-02-14T13:14:28;12.85;;;6.72;;
63016;SDS011;50274;45.640;11.756;2024-02-14T13:16:57;12.45;;;7.20;;
63016;SDS011;50274;45.640;11.756;2024-02-14T13:19:23;16.73;;;7.90;;
63016;SDS011;50274;45.640;11.756;2024-02-14T13:21:48;12.93;;;6.75;;
63016;SDS011;50274;45.640;11.756;2024-02-14T13:24:14;13.15;;;6.63;;
63016;SDS011;50274;45.640;11.756;2024-02-14T13:26:40;12.63;;;6.87;;
63016;SDS011;50274;45.640;11.756;2024-02-14T13:29:06;14.82;;;8.00;;
63016;SDS011;50274;45.640;11.756;2024-02-14T13:31:32;16.40;;;7.45;;
63016;SDS011;50274;45.640;11.756;2024-02-14T13:33:58;15.17;;;7.87;;
63016;SDS011;50274;45.640;11.756;2024-02-14T13:36:23;11.95;;;7.95;;
63016;SDS011;50274;45.640;11.756;2024-02-14T13:38:50;14.23;;;7.85;;
63016;SDS011;50274;45.640;11.756;2024-02-14T13:41:15;11.83;;;7.77;;
63016;SDS011;50274;45.640;11.756;2024-02-14T13:43:41;12.90;;;7.13;;
63016;SDS011;50274;45.640;11.756;2024-02-14T13:46:07;15.47;;;8.43;;
63016;SDS011;50274;45.640;11.756;2024-02-14T13:48:34;14.43;;;8.03;;
63016;SDS011;50274;45.640;11.756;2024-02-14T13:51:00;14.60;;;8.88;;
63016;SDS011;50274;45.640;11.756;2024-02-14T13:53:28;14.07;;;8.27;;
63016;SDS011;50274;45.640;11.756;2024-02-14T13:55:54;12.80;;;7.88;;
63016;SDS011;50274;45.640;11.756;2024-02-14T13:58:21;12.80;;;7.70;;
63016;SDS011;50274;45.640;11.756;2024-02-14T14:00:47;14.20;;;8.77;;
63016;SDS011;50274;45.640;11.756;2024-02-14T14:03:12;14.10;;;7.95;;
63016;SDS011;50274;45.640;11.756;2024-02-14T14:05:38;13.40;;;7.83;;
63016;SDS011;50274;45.640;11.756;2024-02-14T14:08:04;11.73;;;7.30;;
63016;SDS011;50274;45.640;11.756;2024-02-14T14:10:30;13.93;;;8.32;;
63016;SDS011;50274;45.640;11.756;2024-02-14T14:12:56;13.37;;;8.30;;
63016;SDS011;50274;45.640;11.756;2024-02-14T14:15:22;14.48;;;8.85;;
63016;SDS011;50274;45.640;11.756;2024-02-14T14:17:48;21.05;;;9.00;;
63016;SDS011;50274;45.640;11.756;2024-02-14T14:20:13;17.37;;;8.63;;
63016;SDS011;50274;45.640;11.756;2024-02-14T14:22:39;14.07;;;8.05;;